Terminal Aerodrome Forecast
Issued by NWS

Home | Current Version | Previous Version | Text Only | Print | Product List | Glossary On
Versions: 1 2 3 4 5 6 7 8 9 10 11 12 13 14 15 16
000
FTUS42 KTBW 181729
TAFRSW
TAF
KRSW 181729Z 1818/1918 13004KT P6SM BKN050
     FM182200 26006KT P6SM SCT050
     FM190200 VRB03KT P6SM SKC
     FM191600 24008KT P6SM FEW025 FEW250=

USA.gov is the U.S. government's official web portal to all federal, state and local government web resources and services.